City of Colorado Springs Municipal Airport
KCOS : now visible

Airfield :











YOU CAN JOIN US ON...

 
LOGIN :

Register | Disclaimer

   EN    FR    IT 

 









Legend :    VFR   Marginal VFR   IFR   Intensive IFR   Very Intensive IFR
Visi :
Ceiling :
>= 8 km
>= 3000ft
5 to 8 km
1000 to 3000 ft
1500m to 5 km
500 to 1000 ft
800 to 1500m
200 to 500 ft
< 800m
< 200 ft
Symbols :   Thunderstorms  Fog  Heavy snow  Heavy precipitations  Wind > 20 kt







- Airport Elevation : 6187 ft
- IATA code : COS


KCOS - City of Colorado Springs Municipal

CURRENT METAR :
  • 192154Z 10005KT 5SM -SN BR SCT009 OVC019 M09/M13 A2968 RMK AO2 SLP133 PCPN VRY LGT P0000 T10941133

EXPIRED METARs :
  • 192054Z 07006KT 5SM -SN BR SCT009 OVC017 M09/M13 A2969 RMK AO2 SLP140 PCPN VRY LGT P0000 60000 T10941133 58029
  • 192026Z 00000KT 4SM -SN BR SCT008 OVC017 M09/M14 A2970 RMK AO2 P0000 T10941139
  • 191954Z 06005KT 2SM -SN BR SCT007 OVC017 M10/M14 A2973 RMK AO2 SLP153 P0000 T11001139

TAF KCOS
Valid from the 19 at 23:00 until the 20 at 18:00 UTC


192245Z 1923/2018 VRB06KT 5SM -SN SCT009 OVC015
FM200700 35007KT P6SM BKN050
KZDV FIR / North America



MET'MAP, your aeronautical weather chart ! - Copyright ORBIFLY December 2007 - Disclaimer

ORBIFLY MET'MAP TEAM :

Programming & Development : Alexandra Zaïnal
Concept & Development : Baudouin d'Aumeries
Co-Development & Prog : Marc-Olivier Méhu
Technical & hardware support : Manuel Goepfert

Contact : metmap@orbifly.com




SOURCES & CREDITS :

   NOAA       Earth
Advisory